Time;durP1;ratioP1;P1;durP2;ratioP2;P2;SDS_P1;SDS_P2;PMS_P1;PMS_P2;Temp;Humidity;BMP_temperature;BMP_pressure;BME280_temperature;BME280_humidity;BME280_pressure;Samples;Min_cycle;Max_cycle;Signal;HPM_P1;HPM_P2
2022/03/14 00:00:20;;;;;;;2.17;1.50;;;;;;;17.59;64.22;101525.97;5074237;28;20044;-49
2022/03/14 00:02:47;;;;;;;1.70;1.27;;;;;;;17.70;64.30;101532.50;5080527;28;20040;-49
2022/03/14 00:05:15;;;;;;;2.73;1.63;;;;;;;17.57;65.98;101534.31;5083818;28;20266;-52
2022/03/14 00:07:42;;;;;;;3.00;1.37;;;;;;;17.27;68.35;101524.22;5088189;28;20273;-51
2022/03/14 00:10:08;;;;;;;2.50;1.57;;;;;;;17.37;68.01;101529.13;5077335;28;20356;-54
2022/03/14 00:12:34;;;;;;;3.50;1.70;;;;;;;17.55;68.06;101541.84;5088754;28;20274;-51
2022/03/14 00:15:01;;;;;;;2.00;1.40;;;;;;;17.85;65.93;101535.66;5082422;28;20045;-52
2022/03/14 00:17:28;;;;;;;1.88;1.50;;;;;;;17.71;67.17;101531.44;5080831;28;20053;-50
2022/03/14 00:19:55;;;;;;;1.77;1.52;;;;;;;17.81;65.73;101539.03;5089961;28;20037;-53
2022/03/14 00:22:21;;;;;;;2.43;1.60;;;;;;;17.84;65.39;101547.53;5073631;28;20044;-48
2022/03/14 00:24:47;;;;;;;2.13;1.38;;;;;;;17.91;65.25;101537.44;5080452;28;20265;-51
2022/03/14 00:27:12;;;;;;;2.70;1.50;;;;;;;17.70;66.75;101546.03;5083251;28;20185;-48
2022/03/14 00:29:38;;;;;;;4.00;2.20;;;;;;;17.99;65.69;101552.53;5086681;28;20040;-51
2022/03/14 00:32:04;;;;;;;1.80;1.23;;;;;;;17.72;66.26;101554.75;5076260;28;20067;-52
2022/03/14 00:34:30;;;;;;;;;;;;;;;17.80;66.53;101549.03;5089462;28;20312;-50
2022/03/14 00:36:55;;;;;;;2.17;1.40;;;;;;;17.88;65.22;101556.84;5081593;28;19913;-48
2022/03/14 00:39:21;;;;;;;1.50;1.20;;;;;;;17.78;65.78;101551.16;5082238;28;20150;-50
2022/03/14 00:41:46;;;;;;;2.90;1.67;;;;;;;17.65;68.23;101554.84;5088685;28;20101;-47
2022/03/14 00:44:15;;;;;;;1.88;1.38;;;;;;;18.13;64.44;101558.63;5075930;28;20051;-50
2022/03/14 00:46:41;;;;;;;2.20;1.33;;;;;;;17.50;68.11;101563.28;5087658;28;20061;-50
2022/03/14 00:49:09;;;;;;;2.23;1.20;;;;;;;17.43;69.22;101573.38;5083073;28;20338;-51
2022/03/14 00:51:35;;;;;;;4.10;1.50;;;;;;;17.70;67.05;101563.09;5079039;28;20273;-49
2022/03/14 00:54:02;;;;;;;2.72;1.50;;;;;;;17.48;69.04;101577.06;5089901;28;20032;-49
2022/03/14 00:56:28;;;;;;;4.03;1.60;;;;;;;17.67;68.06;101568.97;5077459;28;20039;-52
2022/03/14 00:58:55;;;;;;;2.85;1.50;;;;;;;17.76;66.25;101578.41;5085723;28;20266;-52
2022/03/14 01:01:21;;;;;;;3.40;1.60;;;;;;;17.43;68.37;101582.31;5084674;28;20061;-49
2022/03/14 01:03:46;;;;;;;1.80;1.30;;;;;;;17.41;70.33;101583.56;5078520;28;20056;-48
2022/03/14 01:06:12;;;;;;;2.23;1.50;;;;;;;17.34;69.87;101579.06;5089574;28;20092;-50
2022/03/14 01:08:37;;;;;;;2.27;1.37;;;;;;;17.49;69.55;101585.97;5078515;28;20277;-47
2022/03/14 01:11:02;;;;;;;3.37;2.00;;;;;;;17.37;69.83;101588.59;5084747;28;20044;-50
2022/03/14 01:13:28;;;;;;;2.20;1.50;;;;;;;17.16;74.38;101598.75;5085456;28;20177;-48
2022/03/14 01:15:53;;;;;;;3.08;1.80;;;;;;;17.48;71.25;101595.16;5080450;28;20037;-50
2022/03/14 01:18:19;;;;;;;2.90;2.27;;;;;;;17.43;72.63;101590.44;5083841;28;20052;-53
2022/03/14 01:20:44;;;;;;;4.53;2.03;;;;;;;17.42;72.79;101593.34;5082237;28;20384;-48
2022/03/14 01:23:10;;;;;;;3.80;1.83;;;;;;;17.28;74.35;101592.66;5087078;28;20040;-47
2022/03/14 01:25:37;;;;;;;3.90;2.07;;;;;;;17.37;73.67;101604.81;5089912;28;20047;-46
2022/03/14 01:28:03;;;;;;;3.83;2.08;;;;;;;17.20;75.59;101609.97;5080275;28;20029;-47
2022/03/14 01:30:30;;;;;;;3.65;1.90;;;;;;;17.69;72.16;101596.59;5092859;28;20040;-47
2022/03/14 01:32:56;;;;;;;3.38;1.80;;;;;;;17.21;75.92;101600.81;5084381;28;20042;-51
2022/03/14 01:35:22;;;;;;;3.30;1.88;;;;;;;17.04;78.11;101612.16;5085288;28;20065;-46
2022/03/14 01:37:52;;;;;;;3.28;1.88;;;;;;;16.98;80.61;101615.75;5091732;28;20048;-48
2022/03/14 01:40:22;;;;;;;3.33;1.92;;;;;;;17.09;81.58;101618.81;5080007;28;20086;-49
2022/03/14 01:42:47;;;;;;;3.70;2.15;;;;;;;16.62;87.55;101614.53;5090205;28;20037;-50
2022/03/14 01:45:14;;;;;;;2.80;1.87;;;;;;;16.68;89.85;101613.66;5086571;28;20071;-46
2022/03/14 01:47:41;;;;;;;5.32;2.08;;;;;;;17.23;84.10;101609.53;5082534;28;20037;-48
2022/03/14 01:50:08;;;;;;;5.63;2.60;;;;;;;16.70;89.27;101626.91;5092750;28;20088;-49
2022/03/14 01:52:34;;;;;;;3.80;2.17;;;;;;;16.70;90.16;101625.06;5080853;28;20028;-49
2022/03/14 01:55:01;;;;;;;3.60;2.20;;;;;;;16.66;92.15;101625.69;5088242;28;20097;-47
2022/03/14 01:57:27;;;;;;;4.88;2.50;;;;;;;17.03;87.68;101632.13;5076293;28;20044;-49
2022/03/14 01:59:54;;;;;;;3.38;2.22;;;;;;;17.28;84.37;101625.09;5092055;28;20033;-50
2022/03/14 02:02:22;;;;;;;4.53;2.63;;;;;;;17.23;84.93;101623.03;5080309;28;20052;-49
2022/03/14 02:04:48;;;;;;;4.33;2.73;;;;;;;17.29;84.99;101627.53;5076803;28;20041;-51
2022/03/14 02:07:14;;;;;;;4.10;2.50;;;;;;;16.63;92.49;101638.59;5086901;28;20062;-50
2022/03/14 02:09:40;;;;;;;4.13;2.17;;;;;;;16.87;89.94;101628.06;5082772;28;20100;-47
2022/03/14 02:12:08;;;;;;;3.73;2.50;;;;;;;16.86;91.60;101622.88;5093165;28;20047;-52
2022/03/14 02:14:39;;;;;;;3.50;2.30;;;;;;;17.04;89.40;101628.38;5081037;28;20040;-49
2022/03/14 02:17:06;;;;;;;3.80;2.30;;;;;;;17.11;90.22;101636.44;5087989;28;20063;-47
2022/03/14 02:19:32;;;;;;;3.25;2.15;;;;;;;17.03;90.96;101645.63;5088889;28;20062;-47
2022/03/14 02:21:58;;;;;;;4.17;2.77;;;;;;;17.09;89.38;101651.22;5080306;28;20113;-53
2022/03/14 02:24:29;;;;;;;3.88;2.50;;;;;;;17.42;85.10;101658.22;5093026;28;20025;-48
2022/03/14 02:26:54;;;;;;;4.05;2.60;;;;;;;16.99;89.53;101652.53;5083270;28;20052;-47
2022/03/14 02:29:20;;;;;;;4.07;2.80;;;;;;;17.10;88.23;101663.69;5085835;28;20033;-49
2022/03/14 02:31:47;;;;;;;5.17;3.00;;;;;;;17.19;86.78;101662.38;5090548;28;20037;-46
2022/03/14 02:34:13;;;;;;;5.00;2.78;;;;;;;17.21;87.51;101654.88;5079394;28;20056;-47
2022/03/14 02:36:39;;;;;;;7.88;3.42;;;;;;;17.00;88.86;101653.38;5091462;28;20049;-47
2022/03/14 02:39:08;;;;;;;3.92;2.38;;;;;;;17.30;85.02;101663.53;5084713;28;20037;-48
2022/03/14 02:41:34;;;;;;;4.93;3.00;;;;;;;16.87;89.88;101659.66;5083420;28;20037;-50
2022/03/14 02:44:01;;;;;;;6.07;3.25;;;;;;;16.83;91.99;101661.13;5092318;28;20036;-50
2022/03/14 02:46:27;;;;;;;5.68;2.60;;;;;;;16.75;94.68;101659.53;5079309;28;20032;-50
2022/03/14 02:48:52;;;;;;;3.83;2.30;;;;;;;16.67;96.28;101652.50;5089236;28;20044;-51
2022/03/14 02:51:18;;;;;;;6.63;3.00;;;;;;;16.70;97.07;101657.47;5086304;28;20036;-52
2022/03/14 02:53:44;;;;;;;3.90;2.55;;;;;;;17.01;91.46;101665.84;5081857;28;20308;-49
2022/03/14 02:56:10;;;;;;;5.50;3.00;;;;;;;16.94;92.10;101671.25;5092132;28;20108;-48
2022/03/14 02:58:39;;;;;;;5.15;2.92;;;;;;;17.15;90.04;101677.38;5075298;28;20041;-50
2022/03/14 03:01:04;;;;;;;5.63;2.90;;;;;;;17.25;88.09;101685.81;5072449;28;20050;-47
2022/03/14 03:03:31;;;;;;;4.88;2.80;;;;;;;17.10;88.95;101691.53;5083457;28;20037;-51
2022/03/14 03:05:59;;;;;;;3.53;2.33;;;;;;;17.11;91.57;101687.78;5091495;28;20086;-48
2022/03/14 03:08:24;;;;;;;5.80;3.23;;;;;;;17.13;90.96;101691.09;5078916;28;20036;-48
2022/03/14 03:10:50;;;;;;;6.53;3.63;;;;;;;16.87;93.38;101697.47;5089238;28;20306;-47
2022/03/14 03:13:16;;;;;;;4.80;2.80;;;;;;;16.54;98.35;101695.75;5085320;28;20039;-48
2022/03/14 03:15:42;;;;;;;;;;;;;;;16.54;100.00;101693.06;5082189;28;20071;-51
2022/03/14 03:18:08;;;;;;;5.97;3.27;;;;;;;16.46;100.00;101702.22;5091880;28;19912;-49
2022/03/14 03:20:34;;;;;;;4.88;2.85;;;;;;;16.76;97.07;101701.69;5079358;28;20059;-51
2022/03/14 03:23:01;;;;;;;5.13;3.07;;;;;;;16.58;100.00;101695.13;5086666;28;20077;-46
2022/03/14 03:25:27;;;;;;;;;;;;;;;16.34;100.00;101693.97;5075144;28;20273;-50
2022/03/14 03:27:53;;;;;;;7.07;3.58;;;;;;;16.05;100.00;101705.06;5090346;28;20017;-49
2022/03/14 03:30:19;;;;;;;4.30;2.83;;;;;;;16.20;100.00;101702.13;5077635;28;20055;-51
2022/03/14 03:32:44;;;;;;;6.47;4.05;;;;;;;16.42;100.00;101707.25;5089705;28;20055;-48
2022/03/14 03:35:10;;;;;;;7.40;4.23;;;;;;;15.98;100.00;101711.50;5083867;28;20096;-47
2022/03/14 03:37:37;;;;;;;11.82;6.20;;;;;;;16.27;100.00;101709.34;5081783;28;20040;-47
2022/03/14 03:40:03;;;;;;;11.10;6.32;;;;;;;16.58;99.85;101711.31;5091286;28;20040;-48
2022/03/14 03:42:29;;;;;;;10.05;5.55;;;;;;;16.31;100.00;101719.53;5077532;28;20046;-49
2022/03/14 03:44:54;;;;;;;7.30;4.63;;;;;;;15.93;100.00;101727.50;5088403;28;20084;-51
2022/03/14 03:47:20;;;;;;;7.27;4.73;;;;;;;16.29;100.00;101739.66;5085210;28;20130;-50
2022/03/14 03:49:45;;;;;;;8.77;5.07;;;;;;;16.18;100.00;101743.84;5081028;28;20040;-51
2022/03/14 03:52:11;;;;;;;10.05;5.90;;;;;;;16.29;100.00;101745.91;5091262;28;20063;-50
2022/03/14 03:54:37;;;;;;;6.83;4.63;;;;;;;16.46;100.00;101761.63;5079024;28;20047;-49
2022/03/14 03:57:02;;;;;;;9.27;5.38;;;;;;;16.36;100.00;101758.53;5086857;28;20096;-49
2022/03/14 03:59:28;;;;;;;8.63;5.15;;;;;;;16.17;100.00;101764.63;5086082;28;20040;-52
2022/03/14 04:01:53;;;;;;;6.40;4.23;;;;;;;15.94;100.00;101773.13;5080018;28;20088;-49
2022/03/14 04:04:19;;;;;;;8.40;3.37;;;;;;;15.94;100.00;101810.91;5091246;28;20054;-47
2022/03/14 04:06:45;;;;;;;5.43;3.60;;;;;;;15.70;100.00;101788.06;5079997;28;20047;-48
2022/03/14 04:09:10;;;;;;;7.57;4.20;;;;;;;15.60;100.00;101810.84;5081431;28;20061;-47
2022/03/14 04:11:37;;;;;;;6.63;4.50;;;;;;;15.72;100.00;101794.88;5079618;28;20047;-49
2022/03/14 04:14:03;;;;;;;6.53;4.50;;;;;;;15.76;100.00;101803.41;5068990;28;20060;-50
2022/03/14 04:16:29;;;;;;;7.75;5.28;;;;;;;15.58;100.00;101804.03;5077924;28;20024;-50
2022/03/14 04:18:57;;;;;;;8.15;5.47;;;;;;;15.55;100.00;101810.63;5087352;28;20033;-50
2022/03/14 04:21:23;;;;;;;9.30;5.97;;;;;;;15.48;100.00;101812.50;5084801;28;20122;-45
2022/03/14 04:23:49;;;;;;;;;;;;;;;16.09;100.00;101817.97;5080732;28;20040;-48
2022/03/14 04:26:15;;;;;;;9.37;5.70;;;;;;;15.75;100.00;101820.63;5090888;28;19916;-47
2022/03/14 04:28:41;;;;;;;10.85;6.70;;;;;;;15.56;100.00;101822.22;5079251;28;20040;-46
2022/03/14 04:31:07;;;;;;;9.60;6.50;;;;;;;15.26;100.00;101826.13;5086023;28;20037;-51
2022/03/14 04:33:33;;;;;;;;;;;;;;;15.66;100.00;101824.53;5086869;28;20055;-46
2022/03/14 04:35:59;;;;;;;9.37;5.97;;;;;;;15.78;100.00;101823.72;5078771;28;19920;-49
2022/03/14 04:38:26;;;;;;;10.48;7.03;;;;;;;16.14;100.00;101835.16;5090927;28;20096;-50
2022/03/14 04:40:52;;;;;;;9.60;6.47;;;;;;;16.00;100.00;101847.84;5080184;28;20055;-52
2022/03/14 04:43:17;;;;;;;10.93;6.77;;;;;;;16.36;100.00;101853.84;5084342;28;20037;-51
2022/03/14 04:45:43;;;;;;;9.23;6.37;;;;;;;16.22;100.00;101857.59;5087023;28;20032;-48
2022/03/14 04:48:09;;;;;;;9.90;6.43;;;;;;;15.66;100.00;101864.97;5077142;28;20053;-51
2022/03/14 04:50:35;;;;;;;10.30;6.68;;;;;;;15.96;100.00;101859.25;5081848;28;20043;-50
2022/03/14 04:53:01;;;;;;;13.23;7.15;;;;;;;15.65;100.00;101863.31;5090840;28;20051;-51
2022/03/14 04:55:26;;;;;;;12.05;6.72;;;;;;;15.98;100.00;101863.41;5088569;28;20036;-49
2022/03/14 04:57:52;;;;;;;11.47;7.00;;;;;;;16.23;100.00;101865.47;5083736;28;20032;-50
2022/03/14 05:00:17;;;;;;;12.60;7.50;;;;;;;16.23;100.00;101861.97;5079055;28;20067;-52
2022/03/14 05:02:43;;;;;;;11.00;7.87;;;;;;;16.25;100.00;101876.06;5092957;28;20297;-51
2022/03/14 05:05:13;;;;;;;11.35;8.05;;;;;;;16.41;100.00;101877.50;5086265;28;20075;-47
2022/03/14 05:07:40;;;;;;;13.93;9.32;;;;;;;15.70;100.00;101890.53;5085151;28;20056;-49
2022/03/14 05:10:06;;;;;;;12.00;8.50;;;;;;;15.63;100.00;101885.94;5094076;28;20043;-49
2022/03/14 05:12:32;;;;;;;;;;;;;;;15.96;100.00;101883.53;5081480;28;20032;-48
2022/03/14 05:14:57;;;;;;;14.00;8.40;;;;;;;15.99;100.00;101883.94;5090866;28;19927;-49
2022/03/14 05:17:24;;;;;;;14.70;8.93;;;;;;;15.60;100.00;101886.34;5087913;28;20072;-47
2022/03/14 05:19:50;;;;;;;14.40;9.10;;;;;;;15.56;100.00;101893.19;5083610;28;20036;-49
2022/03/14 05:22:15;;;;;;;12.35;8.23;;;;;;;15.42;100.00;101894.16;5093795;28;20053;-49
2022/03/14 05:24:44;;;;;;;17.48;8.82;;;;;;;15.80;100.00;101903.59;5082246;28;20088;-49
2022/03/14 05:27:10;;;;;;;14.32;8.55;;;;;;;16.02;100.00;101905.09;5088933;28;20035;-48
2022/03/14 05:29:36;;;;;;;14.18;8.85;;;;;;;16.58;100.00;101915.69;5088295;28;20056;-50
2022/03/14 05:32:01;;;;;;;12.47;8.23;;;;;;;16.50;100.00;101924.88;5081995;28;20040;-50
2022/03/14 05:34:27;;;;;;;15.67;8.67;;;;;;;16.27;100.00;101925.28;5093792;28;20066;-52
2022/03/14 05:36:52;;;;;;;15.80;8.67;;;;;;;16.36;100.00;101920.50;5083440;28;20111;-50
2022/03/14 05:39:17;;;;;;;14.17;8.37;;;;;;;15.90;100.00;101929.16;5088115;28;20036;-51
2022/03/14 05:41:42;;;;;;;13.30;8.87;;;;;;;15.80;100.00;101934.09;5087831;28;20036;-47
2022/03/14 05:44:09;;;;;;;13.07;8.07;;;;;;;15.45;100.00;101945.81;5092785;28;20067;-49
2022/03/14 05:46:35;;;;;;;14.80;8.93;;;;;;;15.75;100.00;101950.88;5063648;28;20055;-54
2022/03/14 05:49:01;;;;;;;15.52;8.73;;;;;;;15.83;100.00;101962.53;5090237;28;20029;-50
2022/03/14 05:51:27;;;;;;;17.17;8.27;;;;;;;15.25;100.00;101961.91;5087481;28;20064;-49
2022/03/14 05:53:52;;;;;;;15.48;8.95;;;;;;;15.49;100.00;101965.13;5083118;28;20044;-51
2022/03/14 05:56:18;;;;;;;15.90;9.63;;;;;;;15.66;100.00;101967.44;5093300;28;20037;-51
2022/03/14 05:58:43;;;;;;;16.00;8.80;;;;;;;15.29;100.00;101976.63;5081440;28;20328;-52
2022/03/14 06:01:10;;;;;;;16.17;9.47;;;;;;;15.74;100.00;101980.78;5088085;28;20059;-48
2022/03/14 06:03:36;;;;;;;16.60;9.65;;;;;;;15.64;100.00;101991.94;5076934;28;20056;-51
2022/03/14 06:06:02;;;;;;;13.27;8.88;;;;;;;15.59;100.00;101991.72;5092101;28;20060;-48
2022/03/14 06:08:29;;;;;;;15.05;8.85;;;;;;;15.66;100.00;101995.25;5080031;28;20064;-50
2022/03/14 06:10:55;;;;;;;16.25;8.50;;;;;;;15.33;100.00;102004.84;5090766;28;20488;-51
2022/03/14 06:13:20;;;;;;;14.33;9.10;;;;;;;15.48;100.00;102010.09;5086377;28;20052;-50
2022/03/14 06:15:47;;;;;;;21.08;10.70;;;;;;;15.75;100.00;102006.72;5083438;28;20025;-53
2022/03/14 06:18:13;;;;;;;14.80;8.90;;;;;;;15.75;100.00;101999.44;5093140;28;20047;-53
2022/03/14 06:20:38;;;;;;;21.33;11.10;;;;;;;15.72;100.00;102009.81;5080155;28;20045;-53
2022/03/14 06:23:04;;;;;;;17.13;11.03;;;;;;;15.42;100.00;102028.94;5089258;28;20105;-50
2022/03/14 06:25:30;;;;;;;20.20;10.40;;;;;;;15.08;100.00;102035.97;5087418;28;20265;-48
2022/03/14 06:27:56;;;;;;;20.63;11.70;;;;;;;15.90;100.00;102033.56;5081257;28;20044;-52
2022/03/14 06:30:22;;;;;;;26.27;13.03;;;;;;;15.67;100.00;102025.72;5092665;28;20096;-49
2022/03/14 06:32:48;;;;;;;22.13;13.25;;;;;;;15.78;100.00;102025.19;5081090;28;20253;-50
2022/03/14 06:35:14;;;;;;;;;;;;;;;15.62;100.00;102027.16;5088008;28;20044;-51
2022/03/14 06:37:42;;;;;;;21.58;12.90;;;;;;;15.73;100.00;102033.03;5078919;28;19912;-50
2022/03/14 06:40:08;;;;;;;26.65;13.85;;;;;;;15.60;100.00;102033.81;5091858;28;20067;-52
2022/03/14 06:42:36;;;;;;;23.93;13.50;;;;;;;15.92;100.00;102031.47;5079454;28;20032;-51
2022/03/14 06:45:03;;;;;;;27.35;15.40;;;;;;;15.96;100.00;102038.13;5089214;28;20258;-52
2022/03/14 06:47:29;;;;;;;24.10;14.75;;;;;;;15.68;100.00;102051.66;5086009;28;20032;-49
2022/03/14 06:49:54;;;;;;;26.85;14.60;;;;;;;15.83;100.00;102056.94;5081733;28;20475;-50
2022/03/14 06:52:20;;;;;;;31.47;15.33;;;;;;;16.04;100.00;102062.25;5076683;28;20113;-50
2022/03/14 06:54:46;;;;;;;27.63;15.35;;;;;;;15.65;100.00;102069.09;5091247;28;20029;-50
2022/03/14 06:57:11;;;;;;;25.00;14.57;;;;;;;15.95;100.00;102074.25;5083694;28;20143;-49
2022/03/14 06:59:37;;;;;;;28.00;15.93;;;;;;;15.93;100.00;102081.69;5086318;28;20043;-54
2022/03/14 07:02:03;;;;;;;32.33;17.38;;;;;;;15.92;100.00;102080.03;5080083;28;20047;-52
2022/03/14 07:04:29;;;;;;;31.60;17.85;;;;;;;16.15;100.00;102086.97;5091978;28;20466;-48
2022/03/14 07:06:55;;;;;;;29.55;17.27;;;;;;;15.71;100.00;102099.84;5081131;28;20033;-48
2022/03/14 07:09:21;;;;;;;33.90;16.60;;;;;;;16.00;100.00;102093.34;5086159;28;20120;-50
2022/03/14 07:11:51;;;;;;;32.30;17.42;;;;;;;15.87;100.00;102093.28;5087041;28;20070;-48
2022/03/14 07:14:19;;;;;;;50.53;18.50;;;;;;;15.49;100.00;102102.59;5077382;28;20036;-52
2022/03/14 07:16:45;;;;;;;35.78;18.02;;;;;;;15.78;100.00;102101.50;5079508;28;20043;-53
2022/03/14 07:19:10;;;;;;;35.45;19.45;;;;;;;16.32;100.00;102103.63;5087606;28;20032;-51
2022/03/14 07:21:36;;;;;;;34.00;18.40;;;;;;;15.96;100.00;102104.75;5086516;28;20053;-51
2022/03/14 07:24:02;;;;;;;39.40;19.33;;;;;;;16.25;100.00;102108.19;5080191;28;20065;-49
2022/03/14 07:26:28;;;;;;;47.15;22.10;;;;;;;16.07;100.00;102112.25;5077961;28;20029;-53
2022/03/14 07:28:53;;;;;;;32.38;17.38;;;;;;;15.76;100.00;102118.94;5088646;28;20036;-51
2022/03/14 07:31:20;;;;;;;36.73;20.13;;;;;;;16.21;100.00;102121.25;5083858;28;20058;-48
2022/03/14 07:33:47;;;;;;;34.22;18.75;;;;;;;16.25;100.00;102121.69;5082379;28;20040;-47
2022/03/14 07:36:15;;;;;;;38.25;19.83;;;;;;;15.93;100.00;102137.53;5090154;28;20108;-47
2022/03/14 07:38:41;;;;;;;32.37;17.53;;;;;;;15.42;100.00;102126.81;5077917;28;20033;-52
2022/03/14 07:41:08;;;;;;;34.97;18.65;;;;;;;15.56;100.00;102135.81;5087588;28;20040;-46
2022/03/14 07:43:34;;;;;;;31.58;18.05;;;;;;;16.10;100.00;102138.84;5085429;28;20044;-52
2022/03/14 07:46:01;;;;;;;32.45;18.35;;;;;;;16.72;100.00;102135.28;5078646;28;20052;-49
2022/03/14 07:48:27;;;;;;;32.85;18.38;;;;;;;16.88;100.00;102132.22;5090183;28;20036;-51
2022/03/14 07:50:54;;;;;;;31.33;19.00;;;;;;;16.02;100.00;102139.84;5079117;28;20016;-50
2022/03/14 07:53:20;;;;;;;30.52;18.58;;;;;;;16.14;100.00;102133.88;5084806;28;20033;-51
2022/03/14 07:55:45;;;;;;;29.08;16.63;;;;;;;16.17;100.00;102142.44;5085948;28;20039;-52
2022/03/14 07:58:11;;;;;;;29.10;18.00;;;;;;;16.00;100.00;102143.78;5078280;28;20060;-50
2022/03/14 08:00:37;;;;;;;33.13;17.60;;;;;;;16.26;100.00;102132.28;5090593;28;20029;-48
2022/03/14 08:03:03;;;;;;;30.83;17.17;;;;;;;16.63;100.00;102146.31;5081402;28;20040;-50
2022/03/14 08:05:28;;;;;;;29.95;18.35;;;;;;;16.37;100.00;102144.34;5084537;28;20052;-50
2022/03/14 08:07:54;;;;;;;31.53;18.47;;;;;;;16.56;100.00;102156.25;5088265;28;20032;-47
2022/03/14 08:10:21;;;;;;;28.23;17.02;;;;;;;16.13;100.00;102159.22;5078144;28;20320;-50
2022/03/14 08:12:51;;;;;;;32.58;18.40;;;;;;;15.54;100.00;102159.47;5090406;28;20033;-51
2022/03/14 08:15:25;;;;;;;33.63;18.92;;;;;;;16.40;100.00;102162.88;5082868;28;20060;-48
2022/03/14 08:17:54;;;;;;;31.98;18.58;;;;;;;16.02;100.00;102171.41;5081402;28;20044;-51
2022/03/14 08:20:20;;;;;;;32.90;17.48;;;;;;;16.00;100.00;102178.88;5090578;28;20047;-51
2022/03/14 08:22:47;;;;;;;37.53;18.05;;;;;;;15.97;100.00;102180.09;5077516;28;20040;-52
2022/03/14 08:25:14;;;;;;;35.35;18.45;;;;;;;16.87;100.00;102178.38;5086346;28;20033;-49
2022/03/14 08:27:39;;;;;;;;;;;;;;;16.02;100.00;102193.00;5085378;28;20045;-48
2022/03/14 08:30:05;;;;;;;37.40;18.37;;;;;;;15.87;100.00;102190.38;5079346;28;19920;-51
2022/03/14 08:32:34;;;;;;;38.35;19.17;;;;;;;16.19;100.00;102201.59;5090748;28;20070;-55
2022/03/14 08:35:07;;;;;;;33.60;18.55;;;;;;;16.06;100.00;102194.25;5074061;28;20116;-49
2022/03/14 08:37:38;;;;;;;39.45;20.42;;;;;;;16.29;100.00;102206.63;5084770;28;20070;-51
2022/03/14 08:40:07;;;;;;;36.80;19.88;;;;;;;16.81;100.00;102209.72;5079282;28;20025;-52
2022/03/14 08:42:37;;;;;;;38.75;20.23;;;;;;;16.09;100.00;102214.63;5090599;28;20052;-53
2022/03/14 08:45:04;;;;;;;35.20;19.73;;;;;;;16.69;100.00;102224.84;5080282;28;20028;-52
2022/03/14 08:47:30;;;;;;;36.88;19.60;;;;;;;17.20;100.00;102226.25;5083942;28;20073;-49
2022/03/14 08:49:57;;;;;;;37.53;21.00;;;;;;;17.34;100.00;102230.63;5087546;28;20071;-53
2022/03/14 08:52:23;;;;;;;36.47;18.45;;;;;;;16.68;100.00;102239.38;5077406;28;20029;-48
2022/03/14 08:54:49;;;;;;;32.57;18.40;;;;;;;16.92;100.00;102236.13;5088292;28;20029;-48
2022/03/14 08:57:16;;;;;;;34.25;18.27;;;;;;;17.12;100.00;102242.66;5081995;28;20070;-48
2022/03/14 08:59:44;;;;;;;36.35;20.00;;;;;;;16.90;100.00;102245.50;5082230;28;20048;-50
2022/03/14 09:02:11;;;;;;;32.00;19.00;;;;;;;17.40;100.00;102247.06;5089642;28;20068;-53
2022/03/14 09:04:36;;;;;;;;;;;;;;;17.29;100.00;102249.34;5077608;28;20044;-49
2022/03/14 09:07:03;;;;;;;30.90;17.45;;;;;;;16.81;100.00;102269.16;5087737;28;19913;-46
2022/03/14 09:09:29;;;;;;;;;;;;;;;16.50;100.00;102265.09;5084266;28;20082;-48
2022/03/14 09:11:55;;;;;;;32.27;17.67;;;;;;;16.70;100.00;102275.13;5080744;28;19913;-50
2022/03/14 09:14:20;;;;;;;30.15;17.33;;;;;;;17.28;100.00;102269.28;5090376;28;20068;-49
2022/03/14 09:16:47;;;;;;;30.58;16.33;;;;;;;17.25;100.00;102269.72;5077911;28;20044;-48
2022/03/14 09:19:14;;;;;;;36.97;17.45;;;;;;;17.44;100.00;102280.75;5086421;28;20100;-46
2022/03/14 09:21:40;;;;;;;26.67;16.65;;;;;;;17.77;98.07;102274.56;5084876;28;20041;-49
2022/03/14 09:24:06;;;;;;;35.83;15.80;;;;;;;17.02;100.00;102289.81;5078775;28;20033;-48
2022/03/14 09:26:32;;;;;;;26.85;14.80;;;;;;;16.96;100.00;102296.00;5090410;28;20044;-52
2022/03/14 09:28:59;;;;;;;32.70;16.30;;;;;;;17.22;100.00;102293.63;5079283;28;20036;-51
2022/03/14 09:31:25;;;;;;;26.80;14.35;;;;;;;17.14;100.00;102305.47;5084966;28;20028;-52
2022/03/14 09:33:51;;;;;;;27.67;15.93;;;;;;;17.12;100.00;102310.25;5086696;28;20033;-51
2022/03/14 09:36:17;;;;;;;26.75;15.55;;;;;;;16.94;100.00;102314.31;5078908;28;20153;-48
2022/03/14 09:38:44;;;;;;;30.13;15.63;;;;;;;16.96;100.00;102317.63;5094150;28;20024;-48
2022/03/14 09:41:12;;;;;;;30.80;15.90;;;;;;;17.33;100.00;102315.50;5084251;28;20104;-51
2022/03/14 09:43:44;;;;;;;35.53;15.47;;;;;;;16.94;100.00;102324.25;5086501;28;20361;-51
2022/03/14 09:46:11;;;;;;;28.60;15.70;;;;;;;16.40;100.00;102335.66;5092239;28;20276;-49
2022/03/14 09:48:48;;;;;;;32.93;15.80;;;;;;;16.68;100.00;102332.06;5080458;28;20266;-48
2022/03/14 09:51:16;;;;;;;30.65;15.55;;;;;;;17.33;100.00;102334.44;5088915;28;20270;-48
2022/03/14 09:53:44;;;;;;;25.35;14.38;;;;;;;16.83;100.00;102336.47;5088322;28;20039;-49
2022/03/14 09:56:10;;;;;;;28.33;15.43;;;;;;;16.58;100.00;102342.38;5081583;28;20067;-49
2022/03/14 09:58:36;;;;;;;25.50;15.20;;;;;;;16.64;100.00;102338.91;5093263;28;20033;-50
2022/03/14 10:01:03;;;;;;;27.52;14.50;;;;;;;16.70;100.00;102337.25;5082696;28;20062;-49
2022/03/14 10:03:29;;;;;;;26.85;14.20;;;;;;;17.15;100.00;102334.16;5087403;28;20033;-47
2022/03/14 10:05:54;;;;;;;28.83;13.30;;;;;;;17.21;100.00;102338.75;5090191;28;20040;-47
2022/03/14 10:08:22;;;;;;;31.60;15.57;;;;;;;17.30;100.00;102348.34;5080293;28;20035;-51
2022/03/14 10:10:49;;;;;;;28.37;14.27;;;;;;;17.09;100.00;102348.50;5092862;28;20048;-47
2022/03/14 10:13:16;;;;;;;33.03;15.55;;;;;;;17.18;100.00;102352.66;5083952;28;20268;-49
2022/03/14 10:15:42;;;;;;;29.10;13.43;;;;;;;17.28;97.77;102352.28;5085233;28;20033;-50
2022/03/14 10:18:13;;;;;;;26.13;12.65;;;;;;;17.22;100.00;102364.75;5091519;28;20297;-49
2022/03/14 10:20:57;;;;;;;24.60;13.10;;;;;;;17.48;94.87;102357.75;5079490;28;20060;-49
2022/03/14 10:23:33;;;;;;;21.13;12.30;;;;;;;17.39;98.49;102356.28;5088106;28;20284;-49
2022/03/14 10:26:00;;;;;;;28.17;13.70;;;;;;;17.57;95.07;102351.13;5090102;28;20277;-51
2022/03/14 10:28:38;;;;;;;32.17;14.23;;;;;;;17.39;95.18;102364.38;5079475;28;20376;-48
2022/03/14 10:31:06;;;;;;;29.10;13.90;;;;;;;17.98;90.38;102367.38;5090418;28;20322;-49
2022/03/14 10:33:33;;;;;;;27.07;12.63;;;;;;;18.26;86.01;102380.72;5086007;28;20265;-49
2022/03/14 10:36:00;;;;;;;24.08;10.93;;;;;;;18.31;85.24;102369.28;5082576;28;20297;-49
2022/03/14 10:38:27;;;;;;;24.30;11.80;;;;;;;18.22;85.50;102379.47;5092556;28;20033;-50
2022/03/14 10:40:57;;;;;;;24.30;11.52;;;;;;;17.99;87.98;102385.28;5080585;28;20261;-48
2022/03/14 10:43:32;;;;;;;18.17;10.93;;;;;;;17.97;85.29;102396.31;5087591;28;20092;-49
2022/03/14 10:45:59;;;;;;;23.27;11.03;;;;;;;17.67;90.59;102401.28;5089122;28;20280;-51
2022/03/14 10:48:40;;;;;;;20.90;10.73;;;;;;;18.10;85.80;102395.53;5079093;28;20270;-51
2022/03/14 10:51:08;;;;;;;21.63;11.00;;;;;;;17.98;85.68;102394.44;5089896;28;20341;-49
2022/03/14 10:53:41;;;;;;;17.77;10.60;;;;;;;18.84;76.90;102384.59;5085789;28;20348;-48
2022/03/14 10:56:07;;;;;;;27.10;12.20;;;;;;;19.70;71.71;102386.28;5081435;28;21445;-47
2022/03/14 10:58:33;;;;;;;21.07;11.07;;;;;;;20.73;63.45;102400.41;5092643;28;20269;-47
2022/03/14 11:01:03;;;;;;;19.07;8.53;;;;;;;19.86;64.62;102407.47;5081091;28;20081;-49
2022/03/14 11:03:31;;;;;;;20.63;9.37;;;;;;;20.70;59.35;102402.78;5086649;28;20285;-48
2022/03/14 11:06:04;;;;;;;14.10;7.83;;;;;;;19.15;66.01;102409.31;5088820;28;20277;-48
2022/03/14 11:08:42;;;;;;;18.37;8.60;;;;;;;19.79;64.88;102414.81;5079110;28;20262;-48
2022/03/14 11:11:19;;;;;;;;;;;;;;;19.39;65.33;102409.63;5089679;28;20273;-50